Portada
METAR-TAF:

METAR-TAF

Aeroports :

Aeroport Internacional de Bahrain

Bahrain, Bahrain

latitud: 26-16N, longitud: 050-39E, altitud: 2 m

Observació

L'informe es va fer fa 18 minuts, a les 07:00 UTC
Vent 8 kt del Est/Sud-Est
Temperatura 20°C
Humitat 68%
Pressió 1019 hPa
Visibilitat 10 km o més
Escasses núvols a una alçada de 4000 ft

METAR: OBBI 230700Z 11008KT 9999 FEW040 20/14 Q1019 NOSIG

Hora: 10:18 (07:18 UTC)

Pronòstic

L'informe es va fer fa 2 hores i 18 minuts, a les 05:00 UTC
Pronòstic vàlid del 23 a les 06 UTC al 24 a les 12 UTC
Vent 8 kt del Est/Sud-Est
Visibilitat 10 km o més
sense núvols per sota de 1500 mi sense presència de cumulonimbus.
Temporalment
l' 24 a les 00 UTC al 24 a les 06 UTC
Visibilitat: 5000 m
calitja
Probabilitat 30% :
Temporalment
l' 24 a les 01 UTC al 24 a les 04 UTC
Visibilitat: 3000 m
Núvols disperses a una alçada de 800 ft
boirina

TAF: OBBI 230500Z 2306/2412 12008KT CAVOK TEMPO 2400/2406 5000 HZ NSC PROB30 TEMPO 2401/2404 3000 BR SCT008

Observacions i pronòstics meteorològics de més de 4000 aeroports (METAR i TAF).

Les estacions disponibles són els punts grocs i vermells al mapa.

Posi el ratolí al punt desitjat per veure el nom de l'estació.

Feu clic per veure les observacions i els pronòstics meteorològics.

Per canviar el mapa: feu clic els botons verds amb una creu de color negre per apropar; al botó verd amb un guió per allunyar la imatge; o en les fletxes verdes per a mapes adjacents.


METAR-TAF: